Du har inga inställningar för hoppväder.nu

Hoppväder.nu

Senast uppdaterat 01:19

UTC-tid

2019-12-06 kl. 00:19


Sol och måne

Solen går upp 9:24 och går ner 14:21 (beräknade cirkatider)
Nästa fullmåne blir om 6 dagar (2019-12-12)

METAR

ESNZ (Åre/Östersunds)
(29 minuter sedan)
ESNZ 052350Z AUTO 19009KT 9999 BKN066/// 00/M01 Q0980=















TAF

ESNZ (Åre/Östersunds)
(175 minuter sedan)
ESNZ AMD 052124Z 0521/0524 18007KT CAVOK=





Kodnycklar till TAF och METAR






LHP

(Östersund är område C2a i Sydvästra delen)

Prognos är inte uppdaterad




Spotting

Hur fungerar spotthjälpen och Vindkartan?

Markvind är ca 0 m/s.



Vindkartan

Senast uppdaterad 01:19




All data kommer från LFV.se